KSVC/SVC METAR and TAF weather

Enter ICAO airport designator
Station Type Date Time Source
KSVC METAR 2022/01/18 07:15 UTC NOAA

KSVC 180715Z AUTO 32007KT 10SM CLR 01/M04 A3010 RMK AO2 T00081045


Station Type Date Time Source
KSVC Decoded METAR 2022/01/18 07:15 UTC NOAA

Silver City / Grant, NM, United States (KSVC) 32-38N 108-09W
Jan 18, 2022 - 02:15 AM EST / 2022.01.18 0715 UTC
Wind: from the NW (320 degrees) at 8 MPH (7 KT):0
Visibility: 10 mile(s):0
Sky conditions: clear
Temperature: 33.4 F (0.8 C)
Windchill: 26 F (-3 C):1
Dew Point: 23.9 F (-4.5 C)
Relative Humidity: 67%
Pressure (altimeter): 30.1 in. Hg (1019 hPa)
ob: KSVC 180715Z AUTO 32007KT 10SM CLR 01/M04 A3010 RMK AO2 T00081045
cycle: 7

Station Type Date Time Source
KSVC TAF UTC NOAA

Error!

Example: see airport list